sensor_id;sensor_type;location;lat;lon;timestamp;P1;durP1;ratioP1;P2;durP2;ratioP2
17261;SDS011;9873;52.236;21.002;2023-05-19T00:06:32;1.93;;;1.60;;
17261;SDS011;9873;52.236;21.002;2023-05-19T00:16:37;2.53;;;1.47;;
17261;SDS011;9873;52.236;21.002;2023-05-19T00:26:39;2.53;;;1.77;;
17261;SDS011;9873;52.236;21.002;2023-05-19T00:36:42;2.73;;;1.30;;
17261;SDS011;9873;52.236;21.002;2023-05-19T00:46:51;2.93;;;1.63;;
17261;SDS011;9873;52.236;21.002;2023-05-19T00:56:57;2.10;;;1.70;;
17261;SDS011;9873;52.236;21.002;2023-05-19T01:07:02;2.83;;;1.43;;
17261;SDS011;9873;52.236;21.002;2023-05-19T01:38:04;3.67;;;1.73;;
17261;SDS011;9873;52.236;21.002;2023-05-19T01:48:16;3.50;;;2.00;;
17261;SDS011;9873;52.236;21.002;2023-05-19T02:18:50;2.47;;;1.93;;
17261;SDS011;9873;52.236;21.002;2023-05-19T02:28:56;3.63;;;2.13;;
17261;SDS011;9873;52.236;21.002;2023-05-19T02:38:58;3.43;;;2.30;;
17261;SDS011;9873;52.236;21.002;2023-05-19T02:49:03;3.20;;;2.33;;
17261;SDS011;9873;52.236;21.002;2023-05-19T02:59:08;3.13;;;2.73;;
17261;SDS011;9873;52.236;21.002;2023-05-19T03:09:10;6.00;;;3.10;;
17261;SDS011;9873;52.236;21.002;2023-05-19T03:19:14;6.30;;;3.40;;
17261;SDS011;9873;52.236;21.002;2023-05-19T03:29:16;7.43;;;3.20;;
17261;SDS011;9873;52.236;21.002;2023-05-19T03:39:22;4.67;;;3.13;;
17261;SDS011;9873;52.236;21.002;2023-05-19T03:49:28;4.33;;;3.00;;
17261;SDS011;9873;52.236;21.002;2023-05-19T04:00:07;3.70;;;3.20;;
17261;SDS011;9873;52.236;21.002;2023-05-19T04:10:15;4.47;;;3.70;;
17261;SDS011;9873;52.236;21.002;2023-05-19T04:20:20;6.10;;;3.83;;
17261;SDS011;9873;52.236;21.002;2023-05-19T04:30:24;5.63;;;3.70;;
17261;SDS011;9873;52.236;21.002;2023-05-19T04:40:31;4.60;;;3.60;;
17261;SDS011;9873;52.236;21.002;2023-05-19T04:50:36;5.70;;;3.53;;
17261;SDS011;9873;52.236;21.002;2023-05-19T05:00:43;5.20;;;3.97;;
17261;SDS011;9873;52.236;21.002;2023-05-19T05:10:46;7.03;;;3.77;;
17261;SDS011;9873;52.236;21.002;2023-05-19T05:20:49;4.13;;;2.77;;
17261;SDS011;9873;52.236;21.002;2023-05-19T05:30:53;4.30;;;3.30;;
17261;SDS011;9873;52.236;21.002;2023-05-19T05:41:00;4.77;;;3.13;;
17261;SDS011;9873;52.236;21.002;2023-05-19T05:51:05;5.17;;;3.43;;
17261;SDS011;9873;52.236;21.002;2023-05-19T06:01:10;4.03;;;3.20;;
17261;SDS011;9873;52.236;21.002;2023-05-19T06:11:13;6.23;;;3.57;;
17261;SDS011;9873;52.236;21.002;2023-05-19T06:21:18;6.33;;;3.60;;
17261;SDS011;9873;52.236;21.002;2023-05-19T06:31:21;8.60;;;4.50;;
17261;SDS011;9873;52.236;21.002;2023-05-19T06:41:31;5.57;;;3.73;;
17261;SDS011;9873;52.236;21.002;2023-05-19T06:51:38;3.47;;;3.00;;
17261;SDS011;9873;52.236;21.002;2023-05-19T07:01:48;5.60;;;4.87;;
17261;SDS011;9873;52.236;21.002;2023-05-19T07:11:53;3.90;;;3.07;;
17261;SDS011;9873;52.236;21.002;2023-05-19T07:22:01;5.43;;;3.70;;
17261;SDS011;9873;52.236;21.002;2023-05-19T07:32:05;7.00;;;3.90;;
17261;SDS011;9873;52.236;21.002;2023-05-19T07:42:10;5.67;;;4.13;;
17261;SDS011;9873;52.236;21.002;2023-05-19T07:52:17;6.80;;;4.50;;
17261;SDS011;9873;52.236;21.002;2023-05-19T08:02:20;9.17;;;5.23;;
17261;SDS011;9873;52.236;21.002;2023-05-19T08:12:25;8.63;;;5.27;;
17261;SDS011;9873;52.236;21.002;2023-05-19T08:22:29;11.57;;;4.50;;
17261;SDS011;9873;52.236;21.002;2023-05-19T08:32:33;8.97;;;4.50;;
17261;SDS011;9873;52.236;21.002;2023-05-19T08:42:36;11.80;;;4.13;;
17261;SDS011;9873;52.236;21.002;2023-05-19T08:52:50;8.63;;;4.23;;
17261;SDS011;9873;52.236;21.002;2023-05-19T09:02:54;11.00;;;5.07;;
17261;SDS011;9873;52.236;21.002;2023-05-19T09:13:17;10.20;;;4.63;;
17261;SDS011;9873;52.236;21.002;2023-05-19T09:23:25;9.27;;;4.20;;
17261;SDS011;9873;52.236;21.002;2023-05-19T09:33:35;9.60;;;5.77;;
17261;SDS011;9873;52.236;21.002;2023-05-19T09:43:39;13.80;;;5.03;;
17261;SDS011;9873;52.236;21.002;2023-05-19T09:53:46;15.67;;;5.53;;
17261;SDS011;9873;52.236;21.002;2023-05-19T10:03:53;7.20;;;4.07;;
17261;SDS011;9873;52.236;21.002;2023-05-19T10:13:55;9.17;;;4.30;;
17261;SDS011;9873;52.236;21.002;2023-05-19T10:24:02;9.50;;;4.00;;
17261;SDS011;9873;52.236;21.002;2023-05-19T10:54:44;9.73;;;4.50;;
17261;SDS011;9873;52.236;21.002;2023-05-19T11:04:49;8.60;;;4.57;;
17261;SDS011;9873;52.236;21.002;2023-05-19T11:14:56;9.93;;;4.93;;
17261;SDS011;9873;52.236;21.002;2023-05-19T11:25:00;11.32;;;4.95;;
17261;SDS011;9873;52.236;21.002;2023-05-19T11:35:02;7.22;;;4.20;;
17261;SDS011;9873;52.236;21.002;2023-05-19T11:45:12;6.22;;;3.75;;
17261;SDS011;9873;52.236;21.002;2023-05-19T11:55:17;6.57;;;4.25;;
17261;SDS011;9873;52.236;21.002;2023-05-19T12:05:29;9.25;;;4.68;;
17261;SDS011;9873;52.236;21.002;2023-05-19T12:15:39;5.68;;;3.70;;
17261;SDS011;9873;52.236;21.002;2023-05-19T12:25:42;6.65;;;3.67;;
17261;SDS011;9873;52.236;21.002;2023-05-19T12:35:47;6.75;;;3.92;;
17261;SDS011;9873;52.236;21.002;2023-05-19T12:45:53;6.45;;;4.47;;
17261;SDS011;9873;52.236;21.002;2023-05-19T12:55:57;8.80;;;4.32;;
17261;SDS011;9873;52.236;21.002;2023-05-19T13:06:00;6.68;;;4.53;;
17261;SDS011;9873;52.236;21.002;2023-05-19T13:16:06;6.50;;;3.95;;
17261;SDS011;9873;52.236;21.002;2023-05-19T13:26:09;9.13;;;4.75;;
17261;SDS011;9873;52.236;21.002;2023-05-19T13:36:19;9.95;;;5.00;;
17261;SDS011;9873;52.236;21.002;2023-05-19T13:46:21;9.00;;;4.70;;
17261;SDS011;9873;52.236;21.002;2023-05-19T13:56:44;7.22;;;4.40;;
17261;SDS011;9873;52.236;21.002;2023-05-19T14:06:49;7.65;;;4.10;;
17261;SDS011;9873;52.236;21.002;2023-05-19T14:16:58;6.35;;;4.47;;
17261;SDS011;9873;52.236;21.002;2023-05-19T14:27:05;10.38;;;4.60;;
17261;SDS011;9873;52.236;21.002;2023-05-19T14:37:08;7.28;;;4.35;;
17261;SDS011;9873;52.236;21.002;2023-05-19T14:47:13;9.43;;;4.82;;
17261;SDS011;9873;52.236;21.002;2023-05-19T14:57:19;7.88;;;4.47;;
17261;SDS011;9873;52.236;21.002;2023-05-19T15:07:21;7.80;;;5.00;;
17261;SDS011;9873;52.236;21.002;2023-05-19T15:17:26;11.02;;;4.70;;
17261;SDS011;9873;52.236;21.002;2023-05-19T15:27:33;7.30;;;4.95;;
17261;SDS011;9873;52.236;21.002;2023-05-19T15:37:38;6.25;;;4.63;;
17261;SDS011;9873;52.236;21.002;2023-05-19T15:47:42;10.68;;;5.10;;
17261;SDS011;9873;52.236;21.002;2023-05-19T15:57:51;9.65;;;4.90;;
17261;SDS011;9873;52.236;21.002;2023-05-19T16:07:53;10.82;;;6.20;;
17261;SDS011;9873;52.236;21.002;2023-05-19T16:17:55;7.63;;;5.07;;
17261;SDS011;9873;52.236;21.002;2023-05-19T16:28:04;10.00;;;6.28;;
17261;SDS011;9873;52.236;21.002;2023-05-19T16:38:11;6.78;;;5.43;;
17261;SDS011;9873;52.236;21.002;2023-05-19T16:48:18;11.80;;;5.97;;
17261;SDS011;9873;52.236;21.002;2023-05-19T16:58:24;10.40;;;5.55;;
17261;SDS011;9873;52.236;21.002;2023-05-19T17:08:32;8.95;;;5.93;;
17261;SDS011;9873;52.236;21.002;2023-05-19T17:18:35;8.00;;;5.60;;
17261;SDS011;9873;52.236;21.002;2023-05-19T17:28:38;11.25;;;5.75;;
17261;SDS011;9873;52.236;21.002;2023-05-19T17:38:44;9.05;;;5.53;;
17261;SDS011;9873;52.236;21.002;2023-05-19T17:48:47;9.95;;;6.15;;
17261;SDS011;9873;52.236;21.002;2023-05-19T17:58:57;9.18;;;6.18;;
17261;SDS011;9873;52.236;21.002;2023-05-19T18:09:02;12.02;;;6.80;;
17261;SDS011;9873;52.236;21.002;2023-05-19T18:19:07;14.98;;;7.15;;
17261;SDS011;9873;52.236;21.002;2023-05-19T18:29:12;12.60;;;6.68;;
17261;SDS011;9873;52.236;21.002;2023-05-19T18:39:15;10.90;;;6.38;;
17261;SDS011;9873;52.236;21.002;2023-05-19T18:49:17;8.00;;;6.47;;
17261;SDS011;9873;52.236;21.002;2023-05-19T18:59:25;9.82;;;7.07;;
17261;SDS011;9873;52.236;21.002;2023-05-19T19:09:28;13.18;;;6.97;;
17261;SDS011;9873;52.236;21.002;2023-05-19T19:19:31;11.55;;;7.20;;
17261;SDS011;9873;52.236;21.002;2023-05-19T19:29:36;13.77;;;8.45;;
17261;SDS011;9873;52.236;21.002;2023-05-19T19:39:39;11.88;;;7.50;;
17261;SDS011;9873;52.236;21.002;2023-05-19T19:49:43;10.40;;;6.75;;
17261;SDS011;9873;52.236;21.002;2023-05-19T19:59:46;9.70;;;6.80;;
17261;SDS011;9873;52.236;21.002;2023-05-19T20:09:58;10.63;;;6.78;;
17261;SDS011;9873;52.236;21.002;2023-05-19T20:20:05;12.02;;;6.57;;
17261;SDS011;9873;52.236;21.002;2023-05-19T20:30:12;11.18;;;7.35;;
17261;SDS011;9873;52.236;21.002;2023-05-19T20:40:17;10.60;;;7.35;;
17261;SDS011;9873;52.236;21.002;2023-05-19T20:50:19;15.50;;;6.78;;
17261;SDS011;9873;52.236;21.002;2023-05-19T21:00:26;12.60;;;8.10;;
17261;SDS011;9873;52.236;21.002;2023-05-19T21:10:31;14.07;;;10.23;;
17261;SDS011;9873;52.236;21.002;2023-05-19T21:20:38;13.30;;;8.80;;
17261;SDS011;9873;52.236;21.002;2023-05-19T21:30:40;12.38;;;9.02;;
17261;SDS011;9873;52.236;21.002;2023-05-19T21:40:45;14.15;;;8.88;;
17261;SDS011;9873;52.236;21.002;2023-05-19T21:50:54;13.13;;;8.48;;
17261;SDS011;9873;52.236;21.002;2023-05-19T22:00:56;15.07;;;9.80;;
17261;SDS011;9873;52.236;21.002;2023-05-19T22:11:04;18.17;;;8.50;;
17261;SDS011;9873;52.236;21.002;2023-05-19T22:21:11;11.73;;;7.82;;
17261;SDS011;9873;52.236;21.002;2023-05-19T22:31:18;10.77;;;7.20;;
17261;SDS011;9873;52.236;21.002;2023-05-19T22:41:21;10.93;;;6.50;;
17261;SDS011;9873;52.236;21.002;2023-05-19T22:51:26;9.23;;;6.28;;
17261;SDS011;9873;52.236;21.002;2023-05-19T23:01:29;8.35;;;6.50;;
17261;SDS011;9873;52.236;21.002;2023-05-19T23:11:31;8.85;;;6.68;;
17261;SDS011;9873;52.236;21.002;2023-05-19T23:21:34;8.95;;;6.20;;
17261;SDS011;9873;52.236;21.002;2023-05-19T23:31:42;8.77;;;6.10;;
17261;SDS011;9873;52.236;21.002;2023-05-19T23:41:45;10.13;;;6.55;;
17261;SDS011;9873;52.236;21.002;2023-05-19T23:51:52;10.57;;;6.70;;
